Time;durP1;ratioP1;P1;durP2;ratioP2;P2;SDS_P1;SDS_P2;PMS_P1;PMS_P2;Temp;Humidity;BMP_temperature;BMP_pressure;BME280_temperature;BME280_humidity;BME280_pressure;Samples;Min_cycle;Max_cycle;Signal;HPM_P1;HPM_P2
2022/07/24 00:00:06;;;;;;;5.00;4.50;;;;;;;;;;5044718;28;20076;-69
2022/07/24 00:02:34;;;;;;;6.78;5.32;;;;;;;;;;5043914;28;20555;-71
2022/07/24 00:05:01;;;;;;;4.80;4.30;;;;;;;;;;5042946;28;20067;-69
2022/07/24 00:07:29;;;;;;;6.93;5.00;;;;;;;;;;5044179;28;20052;-57
2022/07/24 00:09:56;;;;;;;;;;;;;;;;;;5044539;28;20137;-47
2022/07/24 00:12:23;;;;;;;8.50;4.68;;;;;;;;;;5045886;28;20053;-50
2022/07/24 00:14:50;;;;;;;5.68;5.07;;;;;;;;;;5043511;28;20107;-51
2022/07/24 00:17:18;;;;;;;4.50;4.10;;;;;;;;;;5045535;28;20083;-48
2022/07/24 00:19:45;;;;;;;4.70;4.30;;;;;;;;;;5046687;28;20449;-51
2022/07/24 00:22:12;;;;;;;8.05;5.20;;;;;;;;;;5045303;28;20049;-48
2022/07/24 00:24:40;;;;;;;6.40;4.35;;;;;;;;;;5044010;28;20588;-47
2022/07/24 00:27:07;;;;;;;5.00;4.00;;;;;;;;;;5043310;28;20052;-50
2022/07/24 00:29:34;;;;;;;5.07;4.57;;;;;;;;;;5042456;28;20080;-60
2022/07/24 00:32:01;;;;;;;4.90;4.40;;;;;;;;;;5043560;28;20115;-59
2022/07/24 00:34:29;;;;;;;6.20;3.95;;;;;;;;;;5041883;28;20048;-59
2022/07/24 00:36:56;;;;;;;5.45;4.85;;;;;;;;;;5044374;28;20548;-59
2022/07/24 00:39:23;;;;;;;5.47;4.97;;;;;;;;;;5043604;28;20137;-59
2022/07/24 00:41:52;;;;;;;9.68;5.68;;;;;;;;;;5044422;28;20527;-60
2022/07/24 00:44:20;;;;;;;6.63;5.15;;;;;;;;;;5046404;28;20431;-59
2022/07/24 00:46:48;;;;;;;9.90;5.45;;;;;;;;;;5044033;28;20400;-64
2022/07/24 00:49:17;;;;;;;7.22;5.35;;;;;;;;;;5040066;28;20048;-59
2022/07/24 00:51:50;;;;;;;6.28;4.90;;;;;;;;;;5043858;28;20094;-58
2022/07/24 00:54:19;;;;;;;6.53;5.30;;;;;;;;;;5044068;28;20068;-58
2022/07/24 00:56:47;;;;;;;6.53;4.53;;;;;;;;;;5044874;28;20044;-58
2022/07/24 00:59:15;;;;;;;12.30;5.47;;;;;;;;;;5044677;28;20076;-58
2022/07/24 01:01:43;;;;;;;6.75;5.40;;;;;;;;;;5042031;28;20048;-58
2022/07/24 01:04:10;;;;;;;8.48;5.60;;;;;;;;;;5042400;28;20049;-69
2022/07/24 01:06:46;;;;;;;9.30;5.28;;;;;;;;;;5042082;28;20639;-59
2022/07/24 01:09:13;;;;;;;14.50;5.43;;;;;;;;;;5043008;28;20076;-57
2022/07/24 01:11:41;;;;;;;9.80;5.78;;;;;;;;;;5042762;28;20041;-58
2022/07/24 01:14:09;;;;;;;12.07;6.30;;;;;;;;;;5043956;28;20045;-56
2022/07/24 01:16:36;;;;;;;17.75;5.30;;;;;;;;;;5042337;28;20048;-59
2022/07/24 01:19:04;;;;;;;14.80;6.60;;;;;;;;;;5040924;28;20319;-56
2022/07/24 01:21:32;;;;;;;18.05;6.53;;;;;;;;;;5044495;28;20052;-58
2022/07/24 01:24:00;;;;;;;;;;;;;;;;;;5043174;28;20262;-45
2022/07/24 01:26:27;;;;;;;11.48;6.13;;;;;;;;;;5041150;28;19971;-57
2022/07/24 01:28:54;;;;;;;15.95;5.72;;;;;;;;;;5043311;28;20681;-57
2022/07/24 01:31:22;;;;;;;21.23;6.88;;;;;;;;;;5046023;28;20102;-57
2022/07/24 01:33:49;;;;;;;14.63;6.22;;;;;;;;;;5041167;28;20056;-58
2022/07/24 01:36:16;;;;;;;;;;;;;;;;;;5044574;28;20080;-57
2022/07/24 01:38:44;;;;;;;19.48;6.10;;;;;;;;;;5045493;28;19924;-58
2022/07/24 01:41:11;;;;;;;16.15;7.13;;;;;;;;;;5044915;28;20052;-64
2022/07/24 01:43:38;;;;;;;18.90;6.97;;;;;;;;;;5048316;28;20076;-57
2022/07/24 01:46:06;;;;;;;16.38;6.13;;;;;;;;;;5048120;28;20103;-64
2022/07/24 01:48:34;;;;;;;24.98;6.40;;;;;;;;;;5045569;28;20041;-64
2022/07/24 01:51:01;;;;;;;16.50;6.97;;;;;;;;;;5045663;28;20147;-64
2022/07/24 01:53:28;;;;;;;21.35;6.60;;;;;;;;;;5047137;28;20134;-64
2022/07/24 01:55:55;;;;;;;17.40;7.20;;;;;;;;;;5048470;28;20088;-63
2022/07/24 01:58:23;;;;;;;21.35;6.88;;;;;;;;;;5046187;28;20053;-64
2022/07/24 02:00:50;;;;;;;24.25;6.47;;;;;;;;;;5044483;28;20065;-60
2022/07/24 02:03:18;;;;;;;19.20;6.30;;;;;;;;;;5045628;28;20041;-64
2022/07/24 02:05:45;;;;;;;18.83;6.35;;;;;;;;;;5046201;28;20803;-59
2022/07/24 02:08:13;;;;;;;20.40;6.70;;;;;;;;;;5045659;28;20081;-60
2022/07/24 02:10:40;;;;;;;17.48;5.75;;;;;;;;;;5047242;28;20049;-59
2022/07/24 02:13:07;;;;;;;11.40;5.00;;;;;;;;;;5047018;28;20052;-59
2022/07/24 02:15:35;;;;;;;18.50;5.03;;;;;;;;;;5045297;28;20048;-59
2022/07/24 02:18:02;;;;;;;12.73;5.05;;;;;;;;;;5045087;28;20045;-59
2022/07/24 02:20:30;;;;;;;16.70;5.40;;;;;;;;;;5049264;28;20054;-52
2022/07/24 02:22:58;;;;;;;12.20;4.80;;;;;;;;;;5045511;28;20045;-57
2022/07/24 02:25:25;;;;;;;11.70;5.43;;;;;;;;;;5045538;28;20111;-58
2022/07/24 02:27:52;;;;;;;12.98;5.18;;;;;;;;;;5046404;28;20088;-59
2022/07/24 02:30:21;;;;;;;11.38;4.68;;;;;;;;;;5047481;28;20045;-58
2022/07/24 02:32:49;;;;;;;15.57;5.28;;;;;;;;;;5045244;28;20049;-57
2022/07/24 02:35:16;;;;;;;18.52;5.50;;;;;;;;;;5045213;28;20136;-59
2022/07/24 02:37:43;;;;;;;;;;;;;;;;;;5046344;28;20049;-58
2022/07/24 02:40:11;;;;;;;12.70;5.40;;;;;;;;;;5049407;28;20010;-67
2022/07/24 02:42:38;;;;;;;14.57;4.80;;;;;;;;;;5046110;28;20780;-59
2022/07/24 02:45:06;;;;;;;;;;;;;;;;;;5046352;28;20618;-60
2022/07/24 02:47:33;;;;;;;8.93;4.15;;;;;;;;;;5044237;28;20498;-59
2022/07/24 02:50:01;;;;;;;14.52;4.57;;;;;;;;;;5047630;28;20627;-59
2022/07/24 02:52:28;;;;;;;8.65;4.38;;;;;;;;;;5043916;28;20057;-60
2022/07/24 02:54:55;;;;;;;8.10;4.15;;;;;;;;;;5043496;28;20495;-59
2022/07/24 02:57:23;;;;;;;7.63;3.95;;;;;;;;;;5044015;28;20187;-60
2022/07/24 02:59:51;;;;;;;15.48;5.13;;;;;;;;;;5045242;28;20072;-70
2022/07/24 03:02:19;;;;;;;17.83;4.28;;;;;;;;;;5046590;28;20045;-46
2022/07/24 03:04:47;;;;;;;9.07;4.45;;;;;;;;;;5043656;28;20149;-48
2022/07/24 03:07:14;;;;;;;11.32;4.50;;;;;;;;;;5049035;28;20064;-47
2022/07/24 03:09:42;;;;;;;6.60;4.05;;;;;;;;;;5044125;28;20099;-49
2022/07/24 03:12:09;;;;;;;9.15;4.63;;;;;;;;;;5045539;28;20077;-47
2022/07/24 03:14:38;;;;;;;11.60;4.20;;;;;;;;;;5044879;28;20134;-49
2022/07/24 03:17:05;;;;;;;6.75;3.47;;;;;;;;;;5048483;28;20130;-64
2022/07/24 03:19:33;;;;;;;9.55;3.83;;;;;;;;;;5043543;28;20173;-58
2022/07/24 03:22:00;;;;;;;16.40;4.20;;;;;;;;;;5044867;28;20073;-58
2022/07/24 03:24:27;;;;;;;13.25;3.63;;;;;;;;;;5044800;28;20110;-57
2022/07/24 03:26:55;;;;;;;12.80;4.30;;;;;;;;;;5046697;28;20072;-55
2022/07/24 03:29:22;;;;;;;9.60;4.05;;;;;;;;;;5042709;28;20084;-56
2022/07/24 03:31:49;;;;;;;7.75;3.53;;;;;;;;;;5043955;28;20507;-58
2022/07/24 03:34:16;;;;;;;9.98;3.75;;;;;;;;;;5043837;28;20080;-57
2022/07/24 03:36:44;;;;;;;11.95;3.80;;;;;;;;;;5045525;28;20535;-58
2022/07/24 03:39:11;;;;;;;13.15;3.78;;;;;;;;;;5045106;28;20138;-63
2022/07/24 03:41:38;;;;;;;5.47;3.58;;;;;;;;;;5044292;28;20081;-58
2022/07/24 03:44:06;;;;;;;12.90;3.67;;;;;;;;;;5045188;28;20084;-58
2022/07/24 03:46:33;;;;;;;12.30;4.22;;;;;;;;;;5045266;28;20072;-59
2022/07/24 03:49:00;;;;;;;17.27;4.43;;;;;;;;;;5043370;28;20045;-58
2022/07/24 03:51:29;;;;;;;14.02;3.65;;;;;;;;;;5044359;28;20045;-58
2022/07/24 03:53:56;;;;;;;15.38;3.72;;;;;;;;;;5045507;28;20501;-58
2022/07/24 03:56:23;;;;;;;15.60;3.67;;;;;;;;;;5043964;28;20049;-58
2022/07/24 03:58:52;;;;;;;8.93;3.00;;;;;;;;;;5044436;28;20064;-55
2022/07/24 04:01:19;;;;;;;6.95;3.47;;;;;;;;;;5046159;28;20037;-57
2022/07/24 04:03:47;;;;;;;11.85;3.53;;;;;;;;;;5044224;28;20043;-58
2022/07/24 04:06:14;;;;;;;10.70;3.28;;;;;;;;;;5043586;28;20044;-56
2022/07/24 04:08:41;;;;;;;8.75;3.40;;;;;;;;;;5046699;28;20080;-56
2022/07/24 04:11:09;;;;;;;12.68;3.65;;;;;;;;;;5046536;28;20053;-57
2022/07/24 04:13:36;;;;;;;13.48;3.20;;;;;;;;;;5047708;28;20045;-48
2022/07/24 04:16:09;;;;;;;16.10;3.45;;;;;;;;;;5045046;28;20559;-52
2022/07/24 04:18:36;;;;;;;9.90;3.08;;;;;;;;;;5044594;28;20649;-56
2022/07/24 04:21:04;;;;;;;10.88;3.72;;;;;;;;;;5046798;28;20137;-54
2022/07/24 04:23:31;;;;;;;11.98;3.65;;;;;;;;;;5046255;28;20045;-57
2022/07/24 04:25:58;;;;;;;11.55;3.35;;;;;;;;;;5045293;28;20144;-55
2022/07/24 04:28:26;;;;;;;8.57;3.20;;;;;;;;;;5043509;28;20531;-56
2022/07/24 04:30:53;;;;;;;15.55;3.00;;;;;;;;;;5045402;28;20099;-55
2022/07/24 04:33:20;;;;;;;8.20;2.60;;;;;;;;;;5046718;28;20041;-69
2022/07/24 04:35:48;;;;;;;7.45;3.10;;;;;;;;;;5043965;28;20504;-50
2022/07/24 04:38:15;;;;;;;5.97;3.05;;;;;;;;;;5043804;28;20694;-64
2022/07/24 04:40:43;;;;;;;6.47;3.05;;;;;;;;;;5045707;28;20106;-64
2022/07/24 04:43:10;;;;;;;;;;;;;;;;;;5049288;28;20475;-64
2022/07/24 04:45:38;;;;;;;7.53;3.20;;;;;;;;;;5044348;28;19927;-64
2022/07/24 04:48:05;;;;;;;6.88;3.40;;;;;;;;;;5048323;28;20103;-64
2022/07/24 04:50:33;;;;;;;;;;;;;;;;;;5045043;28;20084;-64
2022/07/24 04:53:00;;;;;;;12.20;3.72;;;;;;;;;;5044969;28;19956;-69
2022/07/24 04:55:28;;;;;;;6.45;3.50;;;;;;;;;;5044805;28;20115;-50
2022/07/24 04:57:55;;;;;;;10.32;4.05;;;;;;;;;;5046726;28;20095;-47
2022/07/24 05:00:22;;;;;;;7.00;3.25;;;;;;;;;;5046663;28;20092;-51
2022/07/24 05:02:50;;;;;;;14.45;4.32;;;;;;;;;;5044194;28;20037;-53
2022/07/24 05:05:17;;;;;;;9.75;3.80;;;;;;;;;;5042553;28;20107;-50
2022/07/24 05:07:44;;;;;;;8.40;3.58;;;;;;;;;;5045947;28;20976;-47
2022/07/24 05:10:12;;;;;;;11.25;4.07;;;;;;;;;;5044397;28;20074;-49
2022/07/24 05:12:39;;;;;;;7.18;3.30;;;;;;;;;;5045537;28;20237;-55
2022/07/24 05:15:07;;;;;;;5.75;3.05;;;;;;;;;;5044133;28;20495;-50
2022/07/24 05:17:35;;;;;;;10.23;3.35;;;;;;;;;;5044665;28;20055;-50
2022/07/24 05:20:06;;;;;;;8.95;3.35;;;;;;;;;;5047206;28;20045;-49
2022/07/24 05:22:33;;;;;;;11.38;3.78;;;;;;;;;;5046455;28;20098;-48
2022/07/24 05:25:02;;;;;;;9.77;3.53;;;;;;;;;;5044247;28;20045;-51
2022/07/24 09:03:41;;;;;;;;;;;;;;;;;;5045792;28;20050;-70
2022/07/24 09:06:10;;;;;;;7.45;2.38;;;;;;;;;;5086747;28;20556;-70
2022/07/24 09:08:40;;;;;;;12.00;2.30;;;;;;;;;;5083783;28;20052;-70
2022/07/24 09:11:09;;;;;;;5.70;2.08;;;;;;;;;;5081448;28;20044;-72
2022/07/24 09:16:23;;;;;;;7.32;1.77;;;;;;;;;;5092416;28;20047;-70
2022/07/24 09:19:02;;;;;;;5.72;2.38;;;;;;;;;;5084923;28;20089;-64
2022/07/24 09:21:39;;;;;;;5.97;2.05;;;;;;;;;;5075429;28;20052;-56
2022/07/24 09:24:16;;;;;;;5.50;1.60;;;;;;;;;;5071073;28;20507;-60
2022/07/24 09:26:51;;;;;;;8.25;2.20;;;;;;;;;;5083554;28;20051;-60
2022/07/24 09:29:19;;;;;;;5.28;2.10;;;;;;;;;;5086590;28;20091;-60
2022/07/24 09:31:50;;;;;;;4.70;2.25;;;;;;;;;;5091674;28;20082;-60
2022/07/24 09:34:17;;;;;;;7.28;2.15;;;;;;;;;;5090469;28;20391;-60
2022/07/24 09:36:58;;;;;;;4.32;2.08;;;;;;;;;;5088654;28;20105;-60
2022/07/24 09:39:25;;;;;;;7.15;2.00;;;;;;;;;;5089004;28;20372;-70
2022/07/24 09:41:54;;;;;;;4.40;1.80;;;;;;;;;;5084377;28;20517;-64
2022/07/24 09:44:25;;;;;;;5.50;2.03;;;;;;;;;;5075771;28;20502;-64
2022/07/24 09:47:04;;;;;;;4.85;2.15;;;;;;;;;;5085206;28;20530;-64
2022/07/24 09:49:32;;;;;;;3.47;1.73;;;;;;;;;;5089874;28;20091;-64
2022/07/24 09:52:05;;;;;;;5.50;1.92;;;;;;;;;;5094561;28;20048;-65
2022/07/24 09:54:34;;;;;;;4.32;2.25;;;;;;;;;;5079204;28;20051;-64
2022/07/24 09:57:20;;;;;;;4.93;2.10;;;;;;;;;;5084793;28;20067;-64
2022/07/24 09:59:55;;;;;;;7.38;2.22;;;;;;;;;;5089221;28;20142;-51
2022/07/24 10:02:30;;;;;;;10.13;2.67;;;;;;;;;;5090800;28;20242;-48
2022/07/24 10:04:58;;;;;;;8.65;2.85;;;;;;;;;;5088060;28;20052;-47
2022/07/24 10:07:27;;;;;;;7.40;2.20;;;;;;;;;;5092622;28;20583;-47
2022/07/24 10:09:55;;;;;;;6.63;2.30;;;;;;;;;;5091023;28;21264;-49
2022/07/24 10:12:24;;;;;;;4.32;2.00;;;;;;;;;;5089992;28;20110;-49
2022/07/24 10:14:52;;;;;;;6.00;2.30;;;;;;;;;;5092889;28;20113;-48
2022/07/24 10:17:22;;;;;;;7.05;2.00;;;;;;;;;;5089334;28;20521;-58
2022/07/24 10:19:52;;;;;;;7.22;2.28;;;;;;;;;;5094468;28;20058;-59
2022/07/24 10:22:24;;;;;;;6.32;2.15;;;;;;;;;;5091428;28;20048;-59
2022/07/24 10:24:56;;;;;;;4.50;2.10;;;;;;;;;;5090578;28;20072;-59
2022/07/24 10:27:29;;;;;;;4.85;2.05;;;;;;;;;;5089663;28;20052;-59
2022/07/24 10:29:58;;;;;;;6.55;2.13;;;;;;;;;;5089212;28;20511;-59
2022/07/24 10:32:26;;;;;;;6.15;2.20;;;;;;;;;;5089687;28;20109;-60
2022/07/24 10:34:53;;;;;;;3.03;1.70;;;;;;;;;;5084460;28;20198;-50
2022/07/24 10:37:29;;;;;;;4.53;2.10;;;;;;;;;;5088994;28;20083;-49
2022/07/24 10:40:15;;;;;;;7.90;2.10;;;;;;;;;;5087405;28;20139;-70
2022/07/24 10:43:01;;;;;;;8.05;1.90;;;;;;;;;;5081062;28;20055;-69
2022/07/24 10:45:30;;;;;;;5.70;2.25;;;;;;;;;;5088956;28;20090;-71
2022/07/24 10:47:58;;;;;;;6.53;2.30;;;;;;;;;;5093634;28;20071;-69
2022/07/24 10:50:45;;;;;;;4.32;2.20;;;;;;;;;;5089874;28;20048;-69
2022/07/24 10:53:22;;;;;;;4.53;2.45;;;;;;;;;;5087779;28;20078;-68
2022/07/24 10:55:49;;;;;;;7.03;2.40;;;;;;;;;;5085623;28;20146;-58
2022/07/24 10:58:17;;;;;;;;;;;;;;;;;;5089097;28;20124;-60
2022/07/24 11:00:45;;;;;;;8.27;2.17;;;;;;;;;;5082110;28;19956;-60
2022/07/24 11:03:18;;;;;;;3.95;2.22;;;;;;;;;;5078144;28;20507;-60
2022/07/24 11:06:05;;;;;;;5.07;2.30;;;;;;;;;;5080612;28;20088;-60
2022/07/24 11:08:48;;;;;;;7.50;2.63;;;;;;;;;;5080881;28;20135;-60
2022/07/24 11:11:19;;;;;;;4.43;2.20;;;;;;;;;;5085481;28;20145;-59
2022/07/24 11:13:51;;;;;;;6.65;2.28;;;;;;;;;;5090053;28;20084;-69
2022/07/24 11:16:21;;;;;;;4.60;2.50;;;;;;;;;;5088249;28;20113;-63
2022/07/24 11:18:56;;;;;;;3.75;1.90;;;;;;;;;;5090370;28;20069;-56
2022/07/24 11:21:35;;;;;;;5.18;2.25;;;;;;;;;;5085655;28;20059;-57
2022/07/24 11:24:21;;;;;;;7.40;2.30;;;;;;;;;;5091113;28;20075;-58
2022/07/24 11:26:51;;;;;;;5.88;2.33;;;;;;;;;;5090902;28;20499;-57
2022/07/24 11:29:23;;;;;;;5.60;2.20;;;;;;;;;;5086714;28;20582;-58
2022/07/24 11:31:52;;;;;;;8.18;2.55;;;;;;;;;;5084168;28;20198;-56
2022/07/24 11:34:19;;;;;;;3.65;2.00;;;;;;;;;;5086178;28;20101;-68
2022/07/24 11:36:48;;;;;;;4.15;1.92;;;;;;;;;;5094479;28;20139;-56
2022/07/24 11:39:15;;;;;;;5.82;2.28;;;;;;;;;;5081447;28;20198;-54
2022/07/24 11:42:09;;;;;;;6.80;2.45;;;;;;;;;;5085860;28;20052;-56
2022/07/24 11:44:40;;;;;;;4.55;2.00;;;;;;;;;;5085930;28;20056;-57
2022/07/24 11:47:13;;;;;;;4.45;2.10;;;;;;;;;;5088513;28;20086;-57
2022/07/24 11:49:40;;;;;;;2.97;1.83;;;;;;;;;;5088604;28;20044;-57
2022/07/24 11:52:08;;;;;;;5.05;1.92;;;;;;;;;;5091043;28;20465;-49
2022/07/24 11:54:35;;;;;;;4.80;1.90;;;;;;;;;;5089757;28;20461;-60
2022/07/24 11:57:04;;;;;;;5.20;2.28;;;;;;;;;;5085789;28;20040;-60
2022/07/24 11:59:33;;;;;;;3.90;1.92;;;;;;;;;;5083004;28;20180;-60
2022/07/24 12:02:04;;;;;;;5.45;1.80;;;;;;;;;;5083203;28;20056;-60
2022/07/24 12:04:33;;;;;;;3.45;1.83;;;;;;;;;;5088065;28;20080;-59
2022/07/24 12:07:06;;;;;;;3.33;2.03;;;;;;;;;;5077490;28;20078;-60
2022/07/24 12:09:35;;;;;;;3.35;1.60;;;;;;;;;;5083214;28;20091;-56
2022/07/24 12:12:02;;;;;;;3.10;1.70;;;;;;;;;;5084668;28;20141;-58
2022/07/24 12:14:30;;;;;;;3.35;1.63;;;;;;;;;;5081846;28;20087;-60
2022/07/24 12:16:58;;;;;;;3.10;1.75;;;;;;;;;;5084348;28;20080;-59
2022/07/24 12:19:25;;;;;;;4.13;2.05;;;;;;;;;;5084937;28;20139;-59
2022/07/24 12:21:53;;;;;;;3.65;1.98;;;;;;;;;;5078277;28;20049;-60
2022/07/24 12:24:21;;;;;;;4.03;1.80;;;;;;;;;;5086096;28;20078;-57
2022/07/24 12:26:48;;;;;;;;;;;;;;;;;;5081894;28;20056;-59
2022/07/24 12:29:15;;;;;;;2.28;1.67;;;;;;;;;;5085375;28;19928;-59
2022/07/24 12:31:43;;;;;;;;;;;;;;;;;;5088515;28;20580;-63
2022/07/24 12:34:10;;;;;;;3.08;1.77;;;;;;;;;;5088251;28;19967;-59
2022/07/24 12:36:39;;;;;;;3.30;1.80;;;;;;;;;;5090126;28;20550;-60
2022/07/24 12:39:07;;;;;;;5.35;1.63;;;;;;;;;;5086077;28;20098;-60
2022/07/24 12:41:42;;;;;;;4.10;1.90;;;;;;;;;;5087591;28;20087;-60
2022/07/24 12:44:16;;;;;;;5.97;2.08;;;;;;;;;;5086456;28;20044;-59
2022/07/24 12:46:44;;;;;;;5.28;2.10;;;;;;;;;;5091285;28;20060;-60
2022/07/24 12:49:16;;;;;;;2.63;1.60;;;;;;;;;;5093344;28;20051;-57
2022/07/24 12:51:44;;;;;;;2.95;1.67;;;;;;;;;;5091421;28;20067;-68
2022/07/24 12:54:17;;;;;;;5.65;2.28;;;;;;;;;;5090244;28;20694;-68
2022/07/24 12:56:44;;;;;;;3.72;2.30;;;;;;;;;;5087589;28;20048;-69
2022/07/24 12:59:24;;;;;;;3.15;2.00;;;;;;;;;;5088503;28;20574;-68
2022/07/24 13:01:53;;;;;;;4.70;1.80;;;;;;;;;;5091427;28;20052;-68
2022/07/24 13:04:22;;;;;;;3.55;2.13;;;;;;;;;;5090092;28;20051;-69
2022/07/24 13:06:51;;;;;;;4.15;1.90;;;;;;;;;;5088281;28;20110;-49
2022/07/24 13:09:19;;;;;;;4.18;1.85;;;;;;;;;;5088603;28;20048;-48
2022/07/24 13:11:47;;;;;;;2.42;2.03;;;;;;;;;;5086436;28;20087;-49
2022/07/24 13:14:15;;;;;;;3.53;1.88;;;;;;;;;;5089002;28;20455;-49
2022/07/24 13:16:44;;;;;;;5.53;2.00;;;;;;;;;;5089713;28;20591;-47
2022/07/24 13:19:11;;;;;;;5.18;2.20;;;;;;;;;;5084227;28;20058;-51
2022/07/24 13:21:39;;;;;;;3.33;2.00;;;;;;;;;;5088053;28;20110;-51
2022/07/24 13:24:07;;;;;;;4.97;2.35;;;;;;;;;;5089153;28;20121;-53
2022/07/24 13:26:36;;;;;;;5.45;2.20;;;;;;;;;;5086394;28;20088;-63
2022/07/24 13:29:03;;;;;;;5.10;2.10;;;;;;;;;;5089074;28;20051;-47
2022/07/24 13:31:31;;;;;;;6.38;2.22;;;;;;;;;;5086802;28;20114;-57
2022/07/24 13:33:58;;;;;;;3.92;2.10;;;;;;;;;;5065992;28;20063;-56
2022/07/24 13:36:25;;;;;;;4.07;2.10;;;;;;;;;;5080277;28;20142;-57
2022/07/24 13:38:54;;;;;;;3.85;2.15;;;;;;;;;;5087862;28;20079;-55
2022/07/24 13:41:21;;;;;;;3.50;2.20;;;;;;;;;;5087072;28;20572;-53
2022/07/24 13:43:48;;;;;;;;;;;;;;;;;;5088132;28;20048;-57
2022/07/24 13:46:16;;;;;;;5.13;2.10;;;;;;;;;;5077677;28;19967;-59
2022/07/24 13:48:47;;;;;;;4.45;2.25;;;;;;;;;;5077111;28;20052;-56
2022/07/24 13:51:20;;;;;;;6.45;2.83;;;;;;;;;;5075695;28;20044;-57
2022/07/24 13:53:47;;;;;;;5.03;1.85;;;;;;;;;;5077804;28;20300;-57
2022/07/24 13:56:15;;;;;;;5.50;2.10;;;;;;;;;;5084263;28;20083;-56
2022/07/24 13:58:43;;;;;;;5.55;2.28;;;;;;;;;;5076633;28;20092;-58
2022/07/24 14:01:12;;;;;;;4.95;2.25;;;;;;;;;;5075121;28;20055;-56
2022/07/24 14:03:41;;;;;;;3.85;2.20;;;;;;;;;;5077041;28;20053;-54
2022/07/24 14:06:32;;;;;;;3.58;2.10;;;;;;;;;;5331025;22;20176;-57
2022/07/24 14:08:59;;;;;;;8.57;2.63;;;;;;;;;;5088455;28;20130;-54
2022/07/24 14:11:26;;;;;;;5.25;2.22;;;;;;;;;;5094239;28;20080;-56
2022/07/24 14:13:54;;;;;;;4.25;2.38;;;;;;;;;;5095804;28;20071;-55
2022/07/24 14:16:21;;;;;;;;;;;;;;;;;;5096212;28;20102;-55
2022/07/24 14:18:48;;;;;;;4.10;2.55;;;;;;;;;;5093482;28;20766;-57
2022/07/24 14:21:16;;;;;;;6.07;2.35;;;;;;;;;;5093189;28;20109;-58
2022/07/24 14:23:43;;;;;;;;;;;;;;;;;;5094180;28;20510;-55
2022/07/24 14:26:10;;;;;;;5.40;2.60;;;;;;;;;;5094093;28;19979;-57
2022/07/24 14:28:37;;;;;;;6.90;2.63;;;;;;;;;;5097668;28;20105;-57
2022/07/24 14:31:05;;;;;;;;;;;;;;;;;;5095970;28;20078;-51
2022/07/24 14:33:33;;;;;;;3.88;2.45;;;;;;;;;;5096775;28;20389;-53
2022/07/24 14:36:01;;;;;;;5.28;2.78;;;;;;;;;;5096779;28;20502;-58
2022/07/24 14:38:28;;;;;;;;;;;;;;;;;;5081189;28;20079;-53
2022/07/24 14:40:55;;;;;;;6.30;2.20;;;;;;;;;;5094063;28;19973;-60
2022/07/24 14:43:22;;;;;;;5.25;2.70;;;;;;;;;;5095431;28;20091;-54
2022/07/24 14:45:50;;;;;;;5.18;2.63;;;;;;;;;;5095901;28;20080;-46
2022/07/24 14:48:17;;;;;;;4.90;2.50;;;;;;;;;;5099312;28;20078;-47
2022/07/24 14:50:44;;;;;;;7.07;2.63;;;;;;;;;;5098582;27;20087;-43
2022/07/24 14:53:11;;;;;;;;;;;;;;;;;;5097394;28;20048;-45
2022/07/24 14:55:39;;;;;;;5.60;2.28;;;;;;;;;;5084977;28;19955;-46
2022/07/24 14:58:06;;;;;;;5.68;2.60;;;;;;;;;;5094407;28;20079;-46
2022/07/24 15:00:33;;;;;;;3.80;2.20;;;;;;;;;;5095671;28;20044;-55
2022/07/24 15:03:00;;;;;;;5.85;2.50;;;;;;;;;;5097066;28;20043;-54
2022/07/24 15:05:28;;;;;;;6.70;2.80;;;;;;;;;;5095957;28;20132;-53
2022/07/24 15:07:55;;;;;;;6.88;2.28;;;;;;;;;;5097774;28;20486;-48
2022/07/24 15:10:23;;;;;;;6.90;2.20;;;;;;;;;;5097532;28;20407;-46
2022/07/24 15:12:50;;;;;;;7.32;2.58;;;;;;;;;;5099757;27;20138;-48
2022/07/24 15:15:17;;;;;;;;;;;;;;;;;;5102810;28;20051;-50
2022/07/24 15:17:44;;;;;;;9.95;2.55;;;;;;;;;;5097065;28;19969;-47
2022/07/24 15:20:12;;;;;;;3.58;2.20;;;;;;;;;;5095996;27;20052;-54
2022/07/24 15:22:39;;;;;;;;;;;;;;;;;;5096908;28;20090;-60
2022/07/24 15:25:07;;;;;;;3.75;2.40;;;;;;;;;;5095606;28;20388;-53
2022/07/24 15:27:34;;;;;;;6.40;2.50;;;;;;;;;;5098758;28;20085;-50
2022/07/24 15:30:01;;;;;;;;;;;;;;;;;;5097611;28;20044;-56
2022/07/24 15:32:28;;;;;;;10.13;2.80;;;;;;;;;;5095071;28;19976;-56
2022/07/24 15:34:56;;;;;;;5.40;2.63;;;;;;;;;;5093360;28;20072;-54
2022/07/24 15:37:23;;;;;;;;;;;;;;;;;;5096966;27;20052;-53
2022/07/24 15:39:50;;;;;;;4.22;2.63;;;;;;;;;;5097656;28;19962;-50
2022/07/24 15:42:20;;;;;;;8.43;2.70;;;;;;;;;;5095690;28;20580;-59
2022/07/24 15:44:52;;;;;;;3.97;2.53;;;;;;;;;;5098010;28;20078;-62
2022/07/24 15:47:19;;;;;;;9.07;2.53;;;;;;;;;;5095796;28;20078;-60
2022/07/24 15:49:46;;;;;;;6.70;2.90;;;;;;;;;;5095852;28;20087;-60
2022/07/24 15:52:14;;;;;;;3.10;2.53;;;;;;;;;;5100458;28;20144;-60
2022/07/24 15:54:42;;;;;;;5.93;2.53;;;;;;;;;;5097605;28;20589;-61
2022/07/24 15:57:09;;;;;;;8.38;2.40;;;;;;;;;;5096631;28;20139;-61
2022/07/24 15:59:36;;;;;;;;;;;;;;;;;;5100163;28;20084;-55
2022/07/24 16:02:03;;;;;;;6.63;2.78;;;;;;;;;;5096819;28;20016;-45
2022/07/24 16:04:31;;;;;;;6.90;2.67;;;;;;;;;;5098825;28;20522;-53
2022/07/24 16:06:58;;;;;;;6.43;2.80;;;;;;;;;;5099567;28;20488;-50
2022/07/24 16:09:26;;;;;;;6.90;3.03;;;;;;;;;;5098622;28;20136;-49
2022/07/24 16:11:55;;;;;;;3.78;2.40;;;;;;;;;;5097742;28;20091;-52
2022/07/24 16:14:24;;;;;;;7.75;2.85;;;;;;;;;;5093989;28;20139;-47
2022/07/24 16:16:52;;;;;;;3.63;2.42;;;;;;;;;;5095020;28;20492;-49
2022/07/24 16:19:19;;;;;;;3.50;2.42;;;;;;;;;;5095626;28;20047;-60
2022/07/24 16:21:47;;;;;;;6.85;3.25;;;;;;;;;;5096874;28;20493;-49
2022/07/24 16:24:15;;;;;;;6.72;2.50;;;;;;;;;;5094126;27;20102;-45
2022/07/24 16:26:42;;;;;;;5.95;2.65;;;;;;;;;;5098669;27;20209;-46
2022/07/24 16:29:09;;;;;;;4.90;2.63;;;;;;;;;;5097699;27;20090;-44
2022/07/24 16:31:45;;;;;;;8.95;2.70;;;;;;;;;;5098726;28;20573;-44
2022/07/24 16:34:12;;;;;;;5.15;2.45;;;;;;;;;;5097923;28;20123;-44
2022/07/24 16:36:39;;;;;;;6.65;2.78;;;;;;;;;;5098046;28;20098;-60
2022/07/24 16:39:07;;;;;;;6.68;2.80;;;;;;;;;;5096480;28;20123;-54
2022/07/24 16:41:54;;;;;;;7.80;3.03;;;;;;;;;;5097908;28;20498;-53
2022/07/24 16:44:21;;;;;;;5.38;2.85;;;;;;;;;;5097053;28;20071;-54
2022/07/24 16:46:49;;;;;;;11.45;3.20;;;;;;;;;;5095561;28;20454;-57
2022/07/24 16:49:17;;;;;;;5.38;2.65;;;;;;;;;;5096426;28;20716;-54
2022/07/24 16:51:44;;;;;;;5.93;2.90;;;;;;;;;;5096918;28;20405;-55
2022/07/24 16:54:12;;;;;;;4.68;2.78;;;;;;;;;;5098792;28;20104;-60
2022/07/24 16:56:39;;;;;;;5.15;2.80;;;;;;;;;;5095659;28;20060;-44
2022/07/24 16:59:07;;;;;;;6.15;2.85;;;;;;;;;;5091442;28;20886;-49
2022/07/24 17:01:34;;;;;;;5.95;2.80;;;;;;;;;;5099188;27;20140;-47
2022/07/24 17:04:02;;;;;;;8.05;3.08;;;;;;;;;;5094337;28;20047;-46
2022/07/24 17:06:30;;;;;;;6.13;3.10;;;;;;;;;;5097971;27;20197;-48
2022/07/24 17:08:58;;;;;;;4.15;2.60;;;;;;;;;;5096952;28;20459;-48
2022/07/24 17:11:25;;;;;;;6.47;3.20;;;;;;;;;;5095146;28;22030;-53
2022/07/24 17:13:52;;;;;;;8.98;3.05;;;;;;;;;;5096467;28;20044;-48
2022/07/24 17:16:20;;;;;;;6.15;2.63;;;;;;;;;;5094899;28;20198;-61
2022/07/24 17:18:47;;;;;;;4.60;2.90;;;;;;;;;;5092118;28;20048;-60
2022/07/24 17:21:14;;;;;;;5.72;3.38;;;;;;;;;;5091544;28;20087;-61
2022/07/24 17:23:46;;;;;;;6.68;3.13;;;;;;;;;;5094909;28;20051;-60
2022/07/24 17:26:13;;;;;;;6.40;2.92;;;;;;;;;;5095873;28;20102;-60
2022/07/24 17:28:41;;;;;;;8.65;3.17;;;;;;;;;;5088391;28;20143;-61
2022/07/24 17:31:11;;;;;;;5.93;2.72;;;;;;;;;;5095708;28;20202;-59
2022/07/24 17:33:46;;;;;;;8.70;3.70;;;;;;;;;;5094137;28;20047;-49
2022/07/24 17:36:13;;;;;;;7.28;3.25;;;;;;;;;;5096328;28;20077;-52
2022/07/24 17:38:40;;;;;;;4.95;3.25;;;;;;;;;;5090808;28;20059;-52
2022/07/24 17:41:09;;;;;;;7.63;3.38;;;;;;;;;;5087773;28;20056;-51
2022/07/24 17:43:36;;;;;;;9.80;3.70;;;;;;;;;;5091683;28;20056;-48
2022/07/24 17:46:04;;;;;;;9.73;3.25;;;;;;;;;;5095031;28;20134;-49
2022/07/24 17:48:31;;;;;;;6.28;3.42;;;;;;;;;;5094126;28;20052;-43
2022/07/24 17:50:59;;;;;;;;;;;;;;;;;;5095124;28;20121;-49
2022/07/24 17:53:26;;;;;;;5.45;3.83;;;;;;;;;;5092415;28;20020;-47
2022/07/24 17:55:53;;;;;;;5.70;3.50;;;;;;;;;;5093386;28;20051;-48
2022/07/24 17:58:20;;;;;;;8.75;4.18;;;;;;;;;;5094068;28;20260;-47
2022/07/24 18:00:48;;;;;;;8.32;4.03;;;;;;;;;;5095395;28;20569;-52
2022/07/24 18:03:15;;;;;;;11.05;3.90;;;;;;;;;;5094877;28;20140;-46
2022/07/24 18:05:42;;;;;;;;;;;;;;;;;;5091093;28;20044;-51
2022/07/24 18:08:09;;;;;;;6.93;4.07;;;;;;;;;;5090460;28;20372;-52
2022/07/24 18:10:36;;;;;;;7.85;4.10;;;;;;;;;;5095052;28;20059;-55
2022/07/24 18:13:04;;;;;;;11.98;4.72;;;;;;;;;;5093058;28;20133;-52
2022/07/24 18:15:31;;;;;;;9.38;4.50;;;;;;;;;;5091346;28;20056;-60
2022/07/24 18:17:58;;;;;;;6.85;4.10;;;;;;;;;;5094147;28;20439;-61
2022/07/24 18:20:26;;;;;;;6.50;4.40;;;;;;;;;;5095505;28;20149;-61
2022/07/24 18:22:53;;;;;;;11.50;4.53;;;;;;;;;;5093104;28;20137;-61
2022/07/24 18:25:20;;;;;;;7.70;4.75;;;;;;;;;;5098103;28;20101;-61
2022/07/24 18:27:52;;;;;;;9.23;4.60;;;;;;;;;;5095225;27;20109;-61
2022/07/24 18:30:19;;;;;;;6.78;4.68;;;;;;;;;;5100088;28;20526;-47
2022/07/24 18:32:47;;;;;;;7.25;4.90;;;;;;;;;;5097719;28;20051;-64
2022/07/24 18:35:14;;;;;;;7.82;5.10;;;;;;;;;;5099876;28;20062;-56